sensor_id;sensor_type;location;lat;lon;timestamp;pressure;altitude;pressure_sealevel;temperature;humidity
77975;BME280;67164;51.202;0.278;2023-08-12T00:01:51;101335.97;;;25.98;48.64
77975;BME280;67164;51.202;0.278;2023-08-12T00:04:17;101330.54;;;25.80;48.60
77975;BME280;67164;51.202;0.278;2023-08-12T00:06:43;101326.41;;;26.01;48.64
77975;BME280;67164;51.202;0.278;2023-08-12T00:09:09;101322.59;;;25.57;48.57
77975;BME280;67164;51.202;0.278;2023-08-12T00:11:35;101325.32;;;25.56;48.64
77975;BME280;67164;51.202;0.278;2023-08-12T00:14:00;101326.38;;;25.79;48.61
77975;BME280;67164;51.202;0.278;2023-08-12T00:16:26;101327.76;;;25.52;48.62
77975;BME280;67164;51.202;0.278;2023-08-12T00:18:51;101320.84;;;25.46;48.76
77975;BME280;67164;51.202;0.278;2023-08-12T00:21:17;101312.60;;;25.67;48.75
77975;BME280;67164;51.202;0.278;2023-08-12T00:23:43;101315.47;;;25.66;48.65
77975;BME280;67164;51.202;0.278;2023-08-12T00:26:09;101320.14;;;25.62;48.76
77975;BME280;67164;51.202;0.278;2023-08-12T00:28:35;101311.99;;;25.41;48.79
77975;BME280;67164;51.202;0.278;2023-08-12T00:31:00;101318.85;;;25.63;48.72
77975;BME280;67164;51.202;0.278;2023-08-12T00:33:26;101325.73;;;25.84;48.81
77975;BME280;67164;51.202;0.278;2023-08-12T00:35:52;101325.19;;;25.62;48.73
77975;BME280;67164;51.202;0.278;2023-08-12T00:38:18;101322.64;;;25.63;48.66
77975;BME280;67164;51.202;0.278;2023-08-12T00:40:43;101321.06;;;25.39;48.61
77975;BME280;67164;51.202;0.278;2023-08-12T00:43:09;101313.47;;;25.63;48.62
77975;BME280;67164;51.202;0.278;2023-08-12T00:45:35;101308.40;;;25.63;48.62
77975;BME280;67164;51.202;0.278;2023-08-12T00:48:01;101307.74;;;25.61;48.68
77975;BME280;67164;51.202;0.278;2023-08-12T00:50:26;101309.88;;;25.36;48.68
77975;BME280;67164;51.202;0.278;2023-08-12T00:52:52;101298.67;;;25.36;48.59
77975;BME280;67164;51.202;0.278;2023-08-12T00:55:18;101294.57;;;25.59;48.63
77975;BME280;67164;51.202;0.278;2023-08-12T00:57:44;101286.23;;;25.33;48.66
77975;BME280;67164;51.202;0.278;2023-08-12T01:00:11;101277.24;;;25.55;48.66
77975;BME280;67164;51.202;0.278;2023-08-12T01:02:35;101277.32;;;25.35;48.53
77975;BME280;67164;51.202;0.278;2023-08-12T01:05:01;101286.48;;;25.81;48.56
77975;BME280;67164;51.202;0.278;2023-08-12T01:07:27;101296.36;;;25.55;48.58
77975;BME280;67164;51.202;0.278;2023-08-12T01:09:53;101294.94;;;25.56;48.56
77975;BME280;67164;51.202;0.278;2023-08-12T01:12:24;101278.84;;;25.54;48.55
77975;BME280;67164;51.202;0.278;2023-08-12T01:14:48;101282.56;;;25.56;48.50
77975;BME280;67164;51.202;0.278;2023-08-12T01:17:11;101292.15;;;25.55;48.48
77975;BME280;67164;51.202;0.278;2023-08-12T01:19:38;101291.91;;;25.59;48.41
77975;BME280;67164;51.202;0.278;2023-08-12T01:22:03;101291.21;;;25.34;48.46
77975;BME280;67164;51.202;0.278;2023-08-12T01:24:32;101290.08;;;25.30;48.44
77975;BME280;67164;51.202;0.278;2023-08-12T01:26:53;101288.47;;;25.30;48.41
77975;BME280;67164;51.202;0.278;2023-08-12T01:29:19;101292.64;;;25.51;48.45
77975;BME280;67164;51.202;0.278;2023-08-12T01:31:50;101293.27;;;25.56;48.33
77975;BME280;67164;51.202;0.278;2023-08-12T01:34:15;101295.75;;;25.74;48.40
77975;BME280;67164;51.202;0.278;2023-08-12T01:36:37;101293.98;;;25.74;48.33
77975;BME280;67164;51.202;0.278;2023-08-12T01:39:02;101292.82;;;25.52;48.25
77975;BME280;67164;51.202;0.278;2023-08-12T01:41:28;101290.66;;;25.56;48.21
77975;BME280;67164;51.202;0.278;2023-08-12T01:43:53;101295.61;;;25.31;48.20
77975;BME280;67164;51.202;0.278;2023-08-12T01:46:19;101291.29;;;25.77;48.30
77975;BME280;67164;51.202;0.278;2023-08-12T01:48:45;101291.08;;;25.54;48.22
77975;BME280;67164;51.202;0.278;2023-08-12T01:51:11;101287.05;;;25.78;48.17
77975;BME280;67164;51.202;0.278;2023-08-12T01:53:36;101284.59;;;25.57;47.95
77975;BME280;67164;51.202;0.278;2023-08-12T01:56:02;101273.04;;;25.61;47.81
77975;BME280;67164;51.202;0.278;2023-08-12T01:58:28;101290.79;;;25.36;47.63
77975;BME280;67164;51.202;0.278;2023-08-12T02:00:54;101298.54;;;25.38;47.67
77975;BME280;67164;51.202;0.278;2023-08-12T02:03:19;101296.10;;;25.72;47.60
77975;BME280;67164;51.202;0.278;2023-08-12T02:05:45;101286.40;;;25.35;47.79
77975;BME280;67164;51.202;0.278;2023-08-12T02:08:11;101280.39;;;25.73;48.02
77975;BME280;67164;51.202;0.278;2023-08-12T02:10:36;101292.38;;;25.26;48.02
77975;BME280;67164;51.202;0.278;2023-08-12T02:13:03;101284.10;;;25.45;48.12
77975;BME280;67164;51.202;0.278;2023-08-12T02:15:28;101264.17;;;25.51;48.03
77975;BME280;67164;51.202;0.278;2023-08-12T02:17:54;101258.67;;;25.59;48.17
77975;BME280;67164;51.202;0.278;2023-08-12T02:20:19;101264.37;;;25.45;48.02
77975;BME280;67164;51.202;0.278;2023-08-12T02:22:45;101265.48;;;25.62;48.07
77975;BME280;67164;51.202;0.278;2023-08-12T02:25:11;101265.34;;;25.36;48.12
77975;BME280;67164;51.202;0.278;2023-08-12T02:27:37;101265.64;;;25.56;48.07
77975;BME280;67164;51.202;0.278;2023-08-12T02:30:03;101262.96;;;25.21;48.24
77975;BME280;67164;51.202;0.278;2023-08-12T02:32:28;101262.53;;;25.02;48.23
77975;BME280;67164;51.202;0.278;2023-08-12T02:34:54;101260.28;;;25.31;48.21
77975;BME280;67164;51.202;0.278;2023-08-12T02:37:20;101274.49;;;25.29;48.20
77975;BME280;67164;51.202;0.278;2023-08-12T02:39:46;101270.07;;;25.34;48.03
77975;BME280;67164;51.202;0.278;2023-08-12T02:42:11;101271.26;;;25.49;48.24
77975;BME280;67164;51.202;0.278;2023-08-12T02:44:37;101273.66;;;25.54;48.17
77975;BME280;67164;51.202;0.278;2023-08-12T02:47:03;101275.66;;;25.43;48.34
77975;BME280;67164;51.202;0.278;2023-08-12T02:49:29;101274.79;;;25.20;48.31
77975;BME280;67164;51.202;0.278;2023-08-12T02:51:55;101274.50;;;25.20;48.30
77975;BME280;67164;51.202;0.278;2023-08-12T02:54:20;101275.99;;;25.45;48.30
77975;BME280;67164;51.202;0.278;2023-08-12T02:56:46;101279.71;;;25.47;48.24
77975;BME280;67164;51.202;0.278;2023-08-12T02:59:12;101281.70;;;24.92;48.28
77975;BME280;67164;51.202;0.278;2023-08-12T03:01:38;101273.52;;;25.47;48.15
77975;BME280;67164;51.202;0.278;2023-08-12T03:04:04;101266.42;;;25.40;48.25
77975;BME280;67164;51.202;0.278;2023-08-12T03:06:29;101264.73;;;25.44;48.17
77975;BME280;67164;51.202;0.278;2023-08-12T03:08:55;101257.58;;;25.17;48.21
77975;BME280;67164;51.202;0.278;2023-08-12T03:11:21;101261.14;;;25.39;48.25
77975;BME280;67164;51.202;0.278;2023-08-12T03:13:46;101260.72;;;24.94;48.24
77975;BME280;67164;51.202;0.278;2023-08-12T03:16:13;101261.99;;;25.16;48.22
77975;BME280;67164;51.202;0.278;2023-08-12T03:18:38;101266.84;;;25.31;48.38
77975;BME280;67164;51.202;0.278;2023-08-12T03:21:06;101257.46;;;25.24;48.14
77975;BME280;67164;51.202;0.278;2023-08-12T03:23:29;101270.50;;;25.20;48.17
77975;BME280;67164;51.202;0.278;2023-08-12T03:25:55;101272.46;;;25.38;48.22
77975;BME280;67164;51.202;0.278;2023-08-12T03:28:21;101275.52;;;25.14;48.18
77975;BME280;67164;51.202;0.278;2023-08-12T03:30:51;101278.67;;;25.38;48.22
77975;BME280;67164;51.202;0.278;2023-08-12T03:33:12;101270.05;;;25.34;48.26
77975;BME280;67164;51.202;0.278;2023-08-12T03:35:39;101271.59;;;25.09;48.29
77975;BME280;67164;51.202;0.278;2023-08-12T03:38:04;101271.97;;;24.82;48.36
77975;BME280;67164;51.202;0.278;2023-08-12T03:40:30;101269.92;;;25.44;48.13
77975;BME280;67164;51.202;0.278;2023-08-12T03:42:55;101268.30;;;25.14;48.17
77975;BME280;67164;51.202;0.278;2023-08-12T03:45:21;101263.47;;;24.98;48.46
77975;BME280;67164;51.202;0.278;2023-08-12T03:47:47;101258.32;;;25.39;48.10
77975;BME280;67164;51.202;0.278;2023-08-12T03:50:13;101255.98;;;25.35;48.05
77975;BME280;67164;51.202;0.278;2023-08-12T03:52:39;101258.73;;;25.08;48.17
77975;BME280;67164;51.202;0.278;2023-08-12T03:55:05;101259.20;;;25.38;48.06
77975;BME280;67164;51.202;0.278;2023-08-12T03:57:30;101251.88;;;25.26;48.23
77975;BME280;67164;51.202;0.278;2023-08-12T03:59:56;101251.82;;;25.03;48.19
77975;BME280;67164;51.202;0.278;2023-08-12T04:02:21;101250.99;;;25.01;48.18
77975;BME280;67164;51.202;0.278;2023-08-12T04:04:47;101248.72;;;25.39;47.98
77975;BME280;67164;51.202;0.278;2023-08-12T04:07:13;101256.05;;;24.88;48.30
77975;BME280;67164;51.202;0.278;2023-08-12T04:09:39;101256.35;;;25.43;47.82
77975;BME280;67164;51.202;0.278;2023-08-12T04:12:05;101262.71;;;25.07;47.98
77975;BME280;67164;51.202;0.278;2023-08-12T04:14:30;101263.57;;;25.09;47.97
77975;BME280;67164;51.202;0.278;2023-08-12T04:16:56;101261.08;;;25.13;47.84
77975;BME280;67164;51.202;0.278;2023-08-12T04:19:22;101253.07;;;25.19;47.73
77975;BME280;67164;51.202;0.278;2023-08-12T04:21:47;101251.67;;;25.19;48.17
77975;BME280;67164;51.202;0.278;2023-08-12T04:24:13;101246.55;;;25.15;47.83
77975;BME280;67164;51.202;0.278;2023-08-12T04:26:39;101252.25;;;25.22;48.08
77975;BME280;67164;51.202;0.278;2023-08-12T04:29:05;101250.31;;;25.18;48.05
77975;BME280;67164;51.202;0.278;2023-08-12T04:31:30;101255.56;;;25.24;47.99
77975;BME280;67164;51.202;0.278;2023-08-12T04:33:56;101248.43;;;25.01;48.00
77975;BME280;67164;51.202;0.278;2023-08-12T04:36:22;101246.34;;;25.14;48.18
77975;BME280;67164;51.202;0.278;2023-08-12T04:38:48;101245.37;;;24.99;48.00
77975;BME280;67164;51.202;0.278;2023-08-12T04:41:14;101249.07;;;25.04;48.29
77975;BME280;67164;51.202;0.278;2023-08-12T04:43:40;101249.84;;;25.09;48.32
77975;BME280;67164;51.202;0.278;2023-08-12T04:46:05;101247.96;;;25.10;48.27
77975;BME280;67164;51.202;0.278;2023-08-12T04:48:31;101237.23;;;25.36;47.77
77975;BME280;67164;51.202;0.278;2023-08-12T04:50:57;101242.90;;;24.90;48.13
77975;BME280;67164;51.202;0.278;2023-08-12T04:53:22;101244.57;;;24.93;48.02
77975;BME280;67164;51.202;0.278;2023-08-12T04:55:50;101242.79;;;25.11;48.09
77975;BME280;67164;51.202;0.278;2023-08-12T04:58:14;101243.74;;;24.95;47.95
77975;BME280;67164;51.202;0.278;2023-08-12T05:00:40;101240.22;;;25.22;47.92
77975;BME280;67164;51.202;0.278;2023-08-12T05:03:05;101238.07;;;25.22;47.91
77975;BME280;67164;51.202;0.278;2023-08-12T05:05:31;101239.67;;;25.14;48.09
77975;BME280;67164;51.202;0.278;2023-08-12T05:07:57;101239.14;;;25.15;48.03
77975;BME280;67164;51.202;0.278;2023-08-12T05:10:23;101238.60;;;25.04;47.85
77975;BME280;67164;51.202;0.278;2023-08-12T05:12:49;101238.82;;;25.29;47.76
77975;BME280;67164;51.202;0.278;2023-08-12T05:15:14;101242.67;;;25.13;48.03
77975;BME280;67164;51.202;0.278;2023-08-12T05:17:40;101245.22;;;25.21;47.90
77975;BME280;67164;51.202;0.278;2023-08-12T05:20:07;101243.38;;;25.00;47.89
77975;BME280;67164;51.202;0.278;2023-08-12T05:22:32;101246.70;;;25.11;48.06
77975;BME280;67164;51.202;0.278;2023-08-12T05:24:57;101246.08;;;25.04;48.23
77975;BME280;67164;51.202;0.278;2023-08-12T05:27:23;101240.56;;;25.25;47.84
77975;BME280;67164;51.202;0.278;2023-08-12T05:29:49;101237.24;;;25.22;47.87
77975;BME280;67164;51.202;0.278;2023-08-12T05:32:15;101242.52;;;25.09;48.02
77975;BME280;67164;51.202;0.278;2023-08-12T05:34:40;101237.28;;;25.17;47.91
77975;BME280;67164;51.202;0.278;2023-08-12T05:37:06;101235.82;;;25.08;48.05
77975;BME280;67164;51.202;0.278;2023-08-12T05:39:32;101231.69;;;25.08;48.03
77975;BME280;67164;51.202;0.278;2023-08-12T05:41:58;101229.01;;;24.83;48.06
77975;BME280;67164;51.202;0.278;2023-08-12T05:44:24;101227.55;;;25.15;47.90
77975;BME280;67164;51.202;0.278;2023-08-12T05:46:49;101228.13;;;24.75;47.78
77975;BME280;67164;51.202;0.278;2023-08-12T05:49:15;101226.45;;;25.14;47.92
77975;BME280;67164;51.202;0.278;2023-08-12T05:51:41;101225.87;;;25.20;47.79
77975;BME280;67164;51.202;0.278;2023-08-12T05:54:07;101227.18;;;24.71;47.77
77975;BME280;67164;51.202;0.278;2023-08-12T05:56:33;101226.96;;;25.22;47.78
77975;BME280;67164;51.202;0.278;2023-08-12T05:58:58;101225.11;;;24.96;47.73
77975;BME280;67164;51.202;0.278;2023-08-12T06:01:24;101223.34;;;25.15;47.84
77975;BME280;67164;51.202;0.278;2023-08-12T06:03:50;101223.10;;;25.09;47.93
77975;BME280;67164;51.202;0.278;2023-08-12T06:06:16;101223.13;;;24.86;47.92
77975;BME280;67164;51.202;0.278;2023-08-12T06:08:41;101224.30;;;25.17;47.79
77975;BME280;67164;51.202;0.278;2023-08-12T06:11:07;101225.73;;;24.88;47.85
77975;BME280;67164;51.202;0.278;2023-08-12T06:13:33;101224.87;;;25.13;47.87
77975;BME280;67164;51.202;0.278;2023-08-12T06:15:59;101223.96;;;25.04;47.97
77975;BME280;67164;51.202;0.278;2023-08-12T06:18:24;101223.18;;;25.01;48.02
77975;BME280;67164;51.202;0.278;2023-08-12T06:20:50;101219.27;;;25.15;47.77
77975;BME280;67164;51.202;0.278;2023-08-12T06:23:16;101224.14;;;25.12;47.84
77975;BME280;67164;51.202;0.278;2023-08-12T06:25:42;101219.87;;;25.20;47.68
77975;BME280;67164;51.202;0.278;2023-08-12T06:28:08;101220.97;;;25.16;47.73
77975;BME280;67164;51.202;0.278;2023-08-12T06:30:33;101221.74;;;24.95;47.59
77975;BME280;67164;51.202;0.278;2023-08-12T06:32:59;101219.69;;;25.14;47.74
77975;BME280;67164;51.202;0.278;2023-08-12T06:35:25;101219.88;;;25.19;47.61
77975;BME280;67164;51.202;0.278;2023-08-12T06:37:51;101218.02;;;24.89;47.68
77975;BME280;67164;51.202;0.278;2023-08-12T06:40:17;101220.14;;;25.31;47.40
77975;BME280;67164;51.202;0.278;2023-08-12T06:42:42;101224.39;;;24.94;47.64
77975;BME280;67164;51.202;0.278;2023-08-12T06:45:09;101222.96;;;25.13;47.23
77975;BME280;67164;51.202;0.278;2023-08-12T06:47:34;101227.33;;;25.11;47.66
77975;BME280;67164;51.202;0.278;2023-08-12T06:50:00;101226.30;;;25.24;47.44
77975;BME280;67164;51.202;0.278;2023-08-12T06:52:25;101229.12;;;25.27;46.94
77975;BME280;67164;51.202;0.278;2023-08-12T06:54:51;101231.40;;;25.32;47.27
77975;BME280;67164;51.202;0.278;2023-08-12T06:57:17;101228.57;;;25.22;47.39
77975;BME280;67164;51.202;0.278;2023-08-12T06:59:43;101226.75;;;25.29;47.44
77975;BME280;67164;51.202;0.278;2023-08-12T07:02:08;101230.33;;;25.21;47.45
77975;BME280;67164;51.202;0.278;2023-08-12T07:04:34;101230.40;;;25.24;47.33
77975;BME280;67164;51.202;0.278;2023-08-12T07:07:00;101230.96;;;25.17;47.07
77975;BME280;67164;51.202;0.278;2023-08-12T07:09:26;101231.17;;;25.28;47.28
77975;BME280;67164;51.202;0.278;2023-08-12T07:11:52;101228.46;;;25.39;47.38
77975;BME280;67164;51.202;0.278;2023-08-12T07:14:17;101227.48;;;25.20;47.89
77975;BME280;67164;51.202;0.278;2023-08-12T07:16:43;101226.01;;;25.37;47.78
77975;BME280;67164;51.202;0.278;2023-08-12T07:19:09;101225.95;;;25.32;47.73
77975;BME280;67164;51.202;0.278;2023-08-12T07:21:35;101226.20;;;25.54;47.83
77975;BME280;67164;51.202;0.278;2023-08-12T07:24:00;101221.18;;;25.39;47.76
77975;BME280;67164;51.202;0.278;2023-08-12T07:26:26;101221.36;;;25.31;47.36
77975;BME280;67164;51.202;0.278;2023-08-12T07:28:52;101224.04;;;25.64;47.20
77975;BME280;67164;51.202;0.278;2023-08-12T07:31:18;101216.63;;;25.89;47.23
77975;BME280;67164;51.202;0.278;2023-08-12T07:33:43;101216.79;;;25.52;47.91
77975;BME280;67164;51.202;0.278;2023-08-12T07:36:09;101224.00;;;25.04;49.08
77975;BME280;67164;51.202;0.278;2023-08-12T07:38:35;101216.40;;;25.46;48.82
77975;BME280;67164;51.202;0.278;2023-08-12T07:41:01;101225.08;;;25.66;48.08
77975;BME280;67164;51.202;0.278;2023-08-12T07:43:26;101221.00;;;25.96;48.05
77975;BME280;67164;51.202;0.278;2023-08-12T07:45:52;101221.45;;;25.70;48.14
77975;BME280;67164;51.202;0.278;2023-08-12T07:48:18;101227.07;;;25.86;48.32
77975;BME280;67164;51.202;0.278;2023-08-12T07:50:44;101227.50;;;25.74;48.20
77975;BME280;67164;51.202;0.278;2023-08-12T07:53:09;101221.71;;;25.76;48.21
77975;BME280;67164;51.202;0.278;2023-08-12T07:55:35;101222.84;;;25.62;48.52
77975;BME280;67164;51.202;0.278;2023-08-12T07:58:01;101220.23;;;25.63;48.53
77975;BME280;67164;51.202;0.278;2023-08-12T08:00:27;101221.36;;;25.35;48.69
77975;BME280;67164;51.202;0.278;2023-08-12T08:02:53;101219.97;;;25.98;48.49
77975;BME280;67164;51.202;0.278;2023-08-12T08:05:18;101220.71;;;25.54;48.82
77975;BME280;67164;51.202;0.278;2023-08-12T08:07:44;101214.40;;;25.51;48.97
77975;BME280;67164;51.202;0.278;2023-08-12T08:10:10;101214.73;;;25.48;49.07
77975;BME280;67164;51.202;0.278;2023-08-12T08:12:35;101213.67;;;25.60;48.89
77975;BME280;67164;51.202;0.278;2023-08-12T08:15:01;101216.01;;;25.38;48.90
77975;BME280;67164;51.202;0.278;2023-08-12T08:17:27;101211.99;;;25.57;49.01
77975;BME280;67164;51.202;0.278;2023-08-12T08:19:53;101211.70;;;25.66;48.91
77975;BME280;67164;51.202;0.278;2023-08-12T08:22:18;101210.72;;;25.39;48.98
77975;BME280;67164;51.202;0.278;2023-08-12T08:24:44;101211.51;;;25.81;48.70
77975;BME280;67164;51.202;0.278;2023-08-12T08:27:10;101209.45;;;25.84;48.60
77975;BME280;67164;51.202;0.278;2023-08-12T08:29:35;101214.51;;;25.57;48.70
77975;BME280;67164;51.202;0.278;2023-08-12T08:32:01;101212.82;;;25.63;48.58
77975;BME280;67164;51.202;0.278;2023-08-12T08:34:27;101205.91;;;25.61;48.66
77975;BME280;67164;51.202;0.278;2023-08-12T08:36:53;101209.36;;;25.75;48.46
77975;BME280;67164;51.202;0.278;2023-08-12T08:39:18;101207.78;;;25.74;48.89
77975;BME280;67164;51.202;0.278;2023-08-12T08:41:47;101206.50;;;25.55;48.78
77975;BME280;67164;51.202;0.278;2023-08-12T08:44:11;101207.06;;;25.86;48.67
77975;BME280;67164;51.202;0.278;2023-08-12T08:46:36;101208.24;;;26.06;48.36
77975;BME280;67164;51.202;0.278;2023-08-12T08:49:02;101207.47;;;25.81;48.39
77975;BME280;67164;51.202;0.278;2023-08-12T08:51:29;101207.30;;;25.74;48.53
77975;BME280;67164;51.202;0.278;2023-08-12T08:53:54;101203.27;;;26.41;48.22
77975;BME280;67164;51.202;0.278;2023-08-12T08:56:19;101210.99;;;26.00;48.04
77975;BME280;67164;51.202;0.278;2023-08-12T08:58:45;101211.36;;;25.93;48.02
77975;BME280;67164;51.202;0.278;2023-08-12T09:01:11;101208.31;;;26.15;48.01
77975;BME280;67164;51.202;0.278;2023-08-12T09:03:38;101213.14;;;25.95;47.89
77975;BME280;67164;51.202;0.278;2023-08-12T09:06:02;101212.86;;;26.31;47.71
77975;BME280;67164;51.202;0.278;2023-08-12T09:08:29;101200.37;;;26.00;47.79
77975;BME280;67164;51.202;0.278;2023-08-12T09:10:54;101203.59;;;26.06;47.72
77975;BME280;67164;51.202;0.278;2023-08-12T09:13:19;101201.24;;;26.07;47.73
77975;BME280;67164;51.202;0.278;2023-08-12T09:15:45;101202.91;;;26.13;47.64
77975;BME280;67164;51.202;0.278;2023-08-12T09:18:11;101200.30;;;26.09;47.77
77975;BME280;67164;51.202;0.278;2023-08-12T09:20:36;101196.99;;;25.68;48.09
77975;BME280;67164;51.202;0.278;2023-08-12T09:23:03;101201.55;;;25.98;47.77
77975;BME280;67164;51.202;0.278;2023-08-12T09:25:28;101198.35;;;26.18;47.48
77975;BME280;67164;51.202;0.278;2023-08-12T09:27:55;101200.39;;;26.15;47.26
77975;BME280;67164;51.202;0.278;2023-08-12T09:30:20;101198.94;;;26.11;47.32
77975;BME280;67164;51.202;0.278;2023-08-12T09:35:15;101200.84;;;26.03;47.67
77975;BME280;67164;51.202;0.278;2023-08-12T09:37:37;101198.54;;;26.07;47.81
77975;BME280;67164;51.202;0.278;2023-08-12T09:40:03;101194.57;;;25.99;48.15
77975;BME280;67164;51.202;0.278;2023-08-12T09:42:28;101202.18;;;26.00;48.25
77975;BME280;67164;51.202;0.278;2023-08-12T09:44:55;101202.86;;;26.02;48.39
77975;BME280;67164;51.202;0.278;2023-08-12T09:47:20;101200.54;;;26.07;48.29
77975;BME280;67164;51.202;0.278;2023-08-12T09:49:45;101193.86;;;25.90;48.53
77975;BME280;67164;51.202;0.278;2023-08-12T09:52:11;101199.24;;;25.92;48.56
77975;BME280;67164;51.202;0.278;2023-08-12T09:54:37;101198.52;;;25.91;48.53
77975;BME280;67164;51.202;0.278;2023-08-12T09:57:04;101203.02;;;26.24;48.35
77975;BME280;67164;51.202;0.278;2023-08-12T09:59:31;101187.85;;;26.02;48.22
77975;BME280;67164;51.202;0.278;2023-08-12T10:01:54;101199.73;;;26.08;48.10
77975;BME280;67164;51.202;0.278;2023-08-12T10:04:23;101194.03;;;25.93;48.25
77975;BME280;67164;51.202;0.278;2023-08-12T10:06:46;101192.52;;;25.73;48.53
77975;BME280;67164;51.202;0.278;2023-08-12T10:09:12;101205.17;;;25.62;48.97
77975;BME280;67164;51.202;0.278;2023-08-12T10:11:38;101192.78;;;25.80;48.89
77975;BME280;67164;51.202;0.278;2023-08-12T10:14:04;101190.04;;;25.66;48.28
77975;BME280;67164;51.202;0.278;2023-08-12T10:16:29;101191.65;;;25.48;49.11
77975;BME280;67164;51.202;0.278;2023-08-12T10:18:55;101186.23;;;26.38;48.48
77975;BME280;67164;51.202;0.278;2023-08-12T10:21:21;101196.21;;;25.50;49.21
77975;BME280;67164;51.202;0.278;2023-08-12T10:23:46;101189.77;;;25.67;49.00
77975;BME280;67164;51.202;0.278;2023-08-12T10:26:12;101192.73;;;25.86;48.70
77975;BME280;67164;51.202;0.278;2023-08-12T10:28:37;101188.39;;;25.71;49.37
77975;BME280;67164;51.202;0.278;2023-08-12T10:31:04;101189.76;;;25.49;49.26
77975;BME280;67164;51.202;0.278;2023-08-12T10:33:29;101189.06;;;25.55;49.12
77975;BME280;67164;51.202;0.278;2023-08-12T10:35:55;101190.27;;;25.57;49.18
77975;BME280;67164;51.202;0.278;2023-08-12T10:38:21;101193.98;;;25.42;49.36
77975;BME280;67164;51.202;0.278;2023-08-12T10:40:46;101190.29;;;25.50;49.20
77975;BME280;67164;51.202;0.278;2023-08-12T10:43:12;101180.43;;;25.47;49.30
77975;BME280;67164;51.202;0.278;2023-08-12T10:45:48;101184.89;;;25.91;48.80
77975;BME280;67164;51.202;0.278;2023-08-12T10:48:15;101186.08;;;25.84;48.40
77975;BME280;67164;51.202;0.278;2023-08-12T10:50:31;101186.38;;;26.01;48.52
77975;BME280;67164;51.202;0.278;2023-08-12T10:52:54;101174.05;;;25.31;49.27
77975;BME280;67164;51.202;0.278;2023-08-12T10:55:22;101180.05;;;25.56;49.18
77975;BME280;67164;51.202;0.278;2023-08-12T10:57:46;101181.15;;;25.55;49.38
77975;BME280;67164;51.202;0.278;2023-08-12T11:00:14;101180.27;;;25.93;48.51
77975;BME280;67164;51.202;0.278;2023-08-12T11:02:37;101183.66;;;25.87;48.86
77975;BME280;67164;51.202;0.278;2023-08-12T11:05:06;101188.50;;;25.75;49.76
77975;BME280;67164;51.202;0.278;2023-08-12T11:07:33;101182.39;;;25.57;49.86
77975;BME280;67164;51.202;0.278;2023-08-12T11:09:58;101191.01;;;25.76;49.90
77975;BME280;67164;51.202;0.278;2023-08-12T11:12:30;101182.74;;;25.59;49.45
77975;BME280;67164;51.202;0.278;2023-08-12T11:14:48;101190.99;;;25.60;49.35
77975;BME280;67164;51.202;0.278;2023-08-12T11:17:13;101181.62;;;25.91;48.66
77975;BME280;67164;51.202;0.278;2023-08-12T11:19:36;101184.79;;;25.95;48.31
77975;BME280;67164;51.202;0.278;2023-08-12T11:22:02;101186.29;;;26.38;47.87
77975;BME280;67164;51.202;0.278;2023-08-12T11:24:28;101186.02;;;26.07;47.80
77975;BME280;67164;51.202;0.278;2023-08-12T11:26:53;101181.18;;;26.10;47.80
77975;BME280;67164;51.202;0.278;2023-08-12T11:29:19;101190.08;;;26.08;47.80
77975;BME280;67164;51.202;0.278;2023-08-12T11:31:44;101187.85;;;26.10;47.80
77975;BME280;67164;51.202;0.278;2023-08-12T11:34:10;101194.66;;;26.08;47.72
77975;BME280;67164;51.202;0.278;2023-08-12T11:36:35;101192.99;;;26.56;47.71
77975;BME280;67164;51.202;0.278;2023-08-12T11:39:01;101189.94;;;26.00;47.86
77975;BME280;67164;51.202;0.278;2023-08-12T11:41:27;101193.69;;;26.42;47.91
77975;BME280;67164;51.202;0.278;2023-08-12T11:43:51;101185.98;;;26.27;47.77
77975;BME280;67164;51.202;0.278;2023-08-12T11:46:17;101183.58;;;26.01;47.72
77975;BME280;67164;51.202;0.278;2023-08-12T11:48:43;101191.29;;;26.01;47.72
77975;BME280;67164;51.202;0.278;2023-08-12T11:51:07;101191.08;;;26.04;47.64
77975;BME280;67164;51.202;0.278;2023-08-12T11:53:33;101198.66;;;26.01;47.59
77975;BME280;67164;51.202;0.278;2023-08-12T11:55:58;101193.26;;;26.23;47.59
77975;BME280;67164;51.202;0.278;2023-08-12T11:58:23;101195.89;;;26.45;47.64
77975;BME280;67164;51.202;0.278;2023-08-12T12:00:49;101199.91;;;26.24;47.57
77975;BME280;67164;51.202;0.278;2023-08-12T12:03:15;101200.24;;;26.01;47.52
77975;BME280;67164;51.202;0.278;2023-08-12T12:05:40;101204.05;;;25.99;47.54
77975;BME280;67164;51.202;0.278;2023-08-12T12:08:05;101210.19;;;26.21;47.59
77975;BME280;67164;51.202;0.278;2023-08-12T12:10:31;101221.42;;;25.93;47.64
77975;BME280;67164;51.202;0.278;2023-08-12T12:12:56;101229.42;;;25.95;47.61
77975;BME280;67164;51.202;0.278;2023-08-12T12:15:20;101239.51;;;26.21;47.60
77975;BME280;67164;51.202;0.278;2023-08-12T12:17:47;101240.61;;;26.16;47.68
77975;BME280;67164;51.202;0.278;2023-08-12T12:20:11;101232.54;;;25.86;47.82
77975;BME280;67164;51.202;0.278;2023-08-12T12:22:37;101232.18;;;25.88;47.81
77975;BME280;67164;51.202;0.278;2023-08-12T12:25:06;101223.48;;;26.36;47.84
77975;BME280;67164;51.202;0.278;2023-08-12T12:27:27;101215.09;;;25.91;47.82
77975;BME280;67164;51.202;0.278;2023-08-12T12:29:53;101212.45;;;26.12;47.94
77975;BME280;67164;51.202;0.278;2023-08-12T12:32:18;101208.35;;;26.14;47.91
77975;BME280;67164;51.202;0.278;2023-08-12T12:34:43;101206.56;;;25.88;48.02
77975;BME280;67164;51.202;0.278;2023-08-12T12:37:09;101199.54;;;25.93;48.00
77975;BME280;67164;51.202;0.278;2023-08-12T12:39:34;101194.83;;;26.18;48.06
77975;BME280;67164;51.202;0.278;2023-08-12T12:42:00;101198.46;;;25.92;48.08
77975;BME280;67164;51.202;0.278;2023-08-12T12:44:26;101189.56;;;26.14;48.09